Time;durP1;ratioP1;P1;durP2;ratioP2;P2;SDS_P1;SDS_P2;PMS_P1;PMS_P2;Temp;Humidity;BMP_temperature;BMP_pressure;BME280_temperature;BME280_humidity;BME280_pressure;Samples;Min_cycle;Max_cycle;Signal;HPM_P1;HPM_P2
2021/11/17 02:25:48;;;;;;;21.67;12.45;;;5.40;99.90;;;;;;5016323;28;20210;-88
2021/11/17 02:28:40;;;;;;;21.60;11.55;;;5.80;99.90;;;;;;4998576;28;20208;-88
2021/11/17 02:31:49;;;;;;;27.35;12.77;;;5.90;99.90;;;;;;4984670;28;20169;-88
2021/11/17 02:34:44;;;;;;;26.70;12.27;;;5.90;99.90;;;;;;5001388;28;20211;-86
2021/11/17 02:37:22;;;;;;;27.02;13.55;;;5.40;99.90;;;;;;4983078;28;20184;-87
2021/11/17 02:39:50;;;;;;;27.85;14.80;;;5.60;99.90;;;;;;4966591;28;20181;-87
2021/11/17 02:42:45;;;;;;;20.95;13.10;;;5.80;99.90;;;;;;4998025;28;20519;-87
2021/11/17 02:45:53;;;;;;;28.65;16.00;;;5.70;99.90;;;;;;5015338;28;20222;-89
2021/11/17 02:48:56;;;;;;;25.40;14.68;;;5.70;99.90;;;;;;5000438;28;20240;-88
2021/11/17 02:51:59;;;;;;;26.13;13.55;;;5.90;99.90;;;;;;5015431;28;20255;-89
2021/11/17 02:54:43;;;;;;;26.38;14.45;;;5.90;99.90;;;;;;5015469;28;20624;-89
2021/11/17 02:57:15;;;;;;;29.88;14.38;;;5.80;99.90;;;;;;5015451;28;20196;-88
2021/11/17 02:59:59;;;;;;;23.02;12.50;;;5.90;99.90;;;;;;5015206;28;20165;-88
2021/11/17 03:02:27;;;;;;;24.33;13.13;;;5.90;99.90;;;;;;4997656;28;20165;-88
2021/11/17 03:05:36;;;;;;;26.80;12.40;;;5.00;99.90;;;;;;4997652;28;20176;-88
2021/11/17 03:08:02;;;;;;;28.13;14.52;;;;;;;;;;4955028;28;20201;-88
2021/11/17 03:10:57;;;;;;;26.63;14.90;;;5.80;99.90;;;;;;4997608;28;20176;-87
2021/11/17 03:13:48;;;;;;;26.98;14.82;;;5.80;99.90;;;;;;5015005;28;20192;-87
2021/11/17 03:16:28;;;;;;;32.75;18.70;;;5.80;99.90;;;;;;5014913;28;20327;-89
2021/11/17 03:19:00;;;;;;;28.17;13.73;;;5.80;99.90;;;;;;5015059;28;20226;-87
2021/11/17 03:21:45;;;;;;;30.75;17.00;;;5.90;99.90;;;;;;5015121;28;20573;-88
2021/11/17 03:24:29;;;;;;;34.10;17.33;;;5.00;99.90;;;;;;4981271;28;20533;-89
2021/11/17 03:26:57;;;;;;;28.80;13.65;;;6.00;99.90;;;;;;4982668;28;20200;-89
2021/11/17 03:29:40;;;;;;;29.98;16.30;;;5.00;99.90;;;;;;5014650;28;20212;-89
2021/11/17 03:32:40;;;;;;;25.05;14.30;;;5.80;99.90;;;;;;4982506;28;20179;-88
2021/11/17 03:35:15;;;;;;;30.95;16.38;;;5.90;99.90;;;;;;4996998;28;20255;-89
2021/11/17 03:38:31;;;;;;;25.45;15.05;;;6.00;99.90;;;;;;5014586;28;20169;-88
2021/11/17 03:41:06;;;;;;;32.38;17.38;;;5.80;99.90;;;;;;4954117;28;20176;-87
2021/11/17 03:43:50;;;;;;;30.42;16.77;;;5.90;99.90;;;;;;4996696;28;20194;-88
2021/11/17 03:46:46;;;;;;;37.42;16.85;;;5.80;99.90;;;;;;4997987;28;20223;-88
2021/11/17 03:49:31;;;;;;;30.77;17.45;;;5.70;99.90;;;;;;4980685;28;20216;-88
2021/11/17 03:52:10;;;;;;;31.15;14.18;;;5.70;99.90;;;;;;4998708;28;20176;-87
2021/11/17 03:54:55;;;;;;;30.23;16.83;;;5.90;99.90;;;;;;4997237;28;20179;-88
2021/11/17 03:57:50;;;;;;;31.70;16.85;;;6.00;99.90;;;;;;4981589;28;20169;-88
2021/11/17 04:00:29;;;;;;;30.52;16.25;;;6.00;99.90;;;;;;4994103;28;20191;-87
2021/11/17 04:03:18;;;;;;;35.08;16.70;;;4.50;99.90;;;;;;4996526;28;20263;-87
2021/11/17 04:05:55;;;;;;;31.25;16.77;;;6.00;99.90;;;;;;4981627;28;20537;-87
2021/11/17 04:08:33;;;;;;;37.20;17.08;;;6.00;99.90;;;;;;5014379;28;20223;-88
2021/11/17 04:11:09;;;;;;;29.73;16.95;;;6.00;99.90;;;;;;4996383;28;20255;-87
2021/11/17 04:14:05;;;;;;;28.55;16.00;;;6.00;99.90;;;;;;4980611;28;20271;-87
2021/11/17 04:16:58;;;;;;;35.58;19.42;;;5.90;99.90;;;;;;5013717;28;20594;-88
2021/11/17 04:19:36;;;;;;;39.58;17.92;;;6.00;99.90;;;;;;5014072;28;20184;-88
2021/11/17 04:22:29;;;;;;;38.90;18.10;;;5.90;99.90;;;;;;4997320;28;20223;-88
2021/11/17 04:24:58;;;;;;;39.97;18.48;;;5.80;99.90;;;;;;4996446;28;20223;-86
2021/11/17 04:27:55;;;;;;;36.22;18.60;;;5.70;99.90;;;;;;4996373;28;20526;-87
2021/11/17 04:30:53;;;;;;;36.38;18.70;;;6.00;99.90;;;;;;4996488;28;20184;-87
2021/11/17 04:33:31;;;;;;;35.10;18.23;;;6.00;99.90;;;;;;5013911;28;20183;-89
2021/11/17 04:36:28;;;;;;;30.90;15.30;;;6.00;99.90;;;;;;4996164;28;20231;-87
2021/11/17 04:38:54;;;;;;;29.55;17.60;;;6.00;99.90;;;;;;5013113;28;20180;-88
2021/11/17 04:41:38;;;;;;;31.13;16.80;;;5.80;99.90;;;;;;5013324;28;20168;-88
2021/11/17 04:44:10;;;;;;;33.53;17.52;;;6.00;99.90;;;;;;4995778;28;20164;-88
2021/11/17 04:46:51;;;;;;;37.45;18.02;;;5.90;99.90;;;;;;4995931;28;20175;-89
2021/11/17 04:49:19;;;;;;;45.55;20.88;;;5.80;99.90;;;;;;4995873;28;20303;-88
2021/11/17 04:52:03;;;;;;;45.83;22.05;;;5.80;99.90;;;;;;5014175;28;20176;-89
2021/11/17 04:54:54;;;;;;;34.78;19.58;;;6.10;99.90;;;;;;4980744;28;20177;-88
2021/11/17 04:57:45;;;;;;;42.55;19.90;;;5.80;99.90;;;;;;4965370;28;20169;-88
2021/11/17 05:00:20;;;;;;;39.33;18.55;;;5.50;99.90;;;;;;5013484;28;20190;-88
2021/11/17 05:03:04;;;;;;;36.17;17.10;;;7.30;99.90;;;;;;5013759;28;20525;-88
2021/11/17 05:05:45;;;;;;;42.25;17.95;;;5.40;99.90;;;;;;4979971;28;20243;-88
2021/11/17 05:08:46;;;;;;;42.55;19.52;;;5.80;99.90;;;;;;4980147;28;20199;-88
2021/11/17 05:11:40;;;;;;;37.47;18.90;;;6.20;99.90;;;;;;4996011;28;20259;-88
2021/11/17 05:14:06;;;;;;;34.42;17.77;;;6.80;99.90;;;;;;4999908;28;20599;-88
2021/11/17 05:16:53;;;;;;;31.30;15.20;;;6.10;99.90;;;;;;4995724;28;20267;-88
2021/11/17 05:19:28;;;;;;;35.03;19.95;;;6.10;99.90;;;;;;4995469;28;20173;-88
2021/11/17 05:22:42;;;;;;;36.10;17.23;;;6.00;99.90;;;;;;4995890;28;20195;-89
2021/11/17 05:25:16;;;;;;;38.58;17.38;;;6.10;99.90;;;;;;4989537;28;20183;-88
2021/11/17 05:27:51;;;;;;;38.83;18.95;;;6.20;99.90;;;;;;4995863;28;20172;-89
2021/11/17 05:30:43;;;;;;;39.65;18.58;;;5.90;99.90;;;;;;5013390;28;20203;-88
2021/11/17 05:33:33;;;;;;;32.55;17.35;;;5.40;99.90;;;;;;4995963;28;20173;-88
2021/11/17 05:36:20;;;;;;;35.50;17.33;;;6.10;99.90;;;;;;5013166;28;20303;-87
2021/11/17 05:39:14;;;;;;;29.40;14.73;;;6.20;99.90;;;;;;5013225;28;20191;-88
2021/11/17 05:41:58;;;;;;;31.65;17.10;;;6.10;99.90;;;;;;4993114;28;20195;-87
2021/11/17 05:44:42;;;;;;;42.80;20.58;;;6.10;99.90;;;;;;4992647;28;20225;-86
2021/11/17 05:47:29;;;;;;;39.97;19.80;;;6.00;99.90;;;;;;4992586;28;20177;-89
2021/11/17 05:50:01;;;;;;;35.03;19.02;;;4.80;99.90;;;;;;4977565;28;20565;-88
2021/11/17 05:52:51;;;;;;;40.75;19.67;;;5.90;99.90;;;;;;4976748;28;20170;-88
2021/11/17 05:55:51;;;;;;;40.65;20.65;;;6.00;99.90;;;;;;4962845;28;20182;-87
2021/11/17 05:58:26;;;;;;;31.83;15.68;;;6.10;99.90;;;;;;4942782;28;20728;-87
2021/11/17 06:01:22;;;;;;;31.25;16.60;;;6.40;99.90;;;;;;4993951;28;20172;-87
2021/11/17 06:04:00;;;;;;;30.52;16.48;;;6.20;99.90;;;;;;4975992;28;20182;-87
2021/11/17 06:06:26;;;;;;;38.33;19.75;;;6.20;99.90;;;;;;4988545;28;20494;-89
2021/11/17 06:08:54;;;;;;;34.43;17.60;;;6.10;99.90;;;;;;4994943;28;20194;-88
2021/11/17 06:11:29;;;;;;;39.50;19.50;;;6.10;99.90;;;;;;4993985;28;20162;-88
2021/11/17 06:13:57;;;;;;;35.58;16.92;;;6.90;99.90;;;;;;4992834;28;20173;-87
2021/11/17 06:16:24;;;;;;;43.60;18.35;;;5.20;99.90;;;;;;4992681;28;20170;-88
2021/11/17 06:18:50;;;;;;;40.65;20.80;;;;;;;;;;4994232;28;20265;-88
2021/11/17 06:21:16;;;;;;;35.45;19.90;;;6.00;99.90;;;;;;4993729;28;20525;-88
2021/11/17 06:23:48;;;;;;;37.00;20.48;;;6.00;99.90;;;;;;4994629;28;20178;-86
2021/11/17 06:26:21;;;;;;;30.02;15.23;;;6.00;99.90;;;;;;4990719;28;20177;-86
2021/11/17 06:28:58;;;;;;;32.70;16.88;;;5.30;99.90;;;;;;4997659;28;20213;-88
2021/11/17 06:31:25;;;;;;;35.53;18.23;;;5.80;99.90;;;;;;4997199;28;20157;-88
2021/11/17 06:33:50;;;;;;;39.10;19.92;;;6.00;99.90;;;;;;4995641;28;20200;-88
2021/11/17 06:36:17;;;;;;;46.37;21.03;;;;;;;;;;4999750;28;20540;-88
2021/11/17 06:38:44;;;;;;;46.08;21.63;;;6.10;99.90;;;;;;4998120;28;20696;-88
2021/11/17 06:41:10;;;;;;;34.35;18.17;;;5.10;99.90;;;;;;5001216;28;20169;-87
2021/11/17 06:43:36;;;;;;;39.63;19.42;;;6.00;99.90;;;;;;4999340;28;20204;-89
2021/11/17 06:46:02;;;;;;;42.53;19.70;;;;;;;;;;4651328;28;9999613;-85
2021/11/17 06:48:29;;;;;;;35.28;17.15;;;6.30;99.90;;;;;;5017719;28;20698;-89
2021/11/17 06:50:58;;;;;;;33.75;19.00;;;6.40;99.90;;;;;;5014407;28;20189;-89
2021/11/17 06:53:35;;;;;;;36.97;19.30;;;6.30;99.90;;;;;;5251386;22;20264;-88
2021/11/17 07:01:11;;;;;;;29.52;17.58;;;6.40;99.90;;;;;;5431381;22;20215;-87
2021/11/17 07:03:40;;;;;;;26.38;13.50;;;;;;;;;;5612902;22;20207;-89
2021/11/17 07:08:45;;;;;;;34.55;18.20;;;6.50;99.90;;;;;;5127464;22;20805;-92
2021/11/17 07:16:57;;;;;;;35.58;16.05;;;6.50;99.90;;;;;;5050819;22;20239;-91
2021/11/17 07:19:38;;;;;;;31.95;17.80;;;6.40;99.90;;;;;;5046827;28;20164;-93
2021/11/17 07:22:08;;;;;;;30.70;19.20;;;6.40;99.90;;;;;;5040966;28;20183;-90
2021/11/17 07:24:39;;;;;;;25.73;15.50;;;6.50;99.90;;;;;;5048999;28;20184;-90
2021/11/17 07:27:18;;;;;;;32.20;16.60;;;6.10;99.90;;;;;;5044292;28;20156;-93
2021/11/17 07:29:53;;;;;;;34.92;17.35;;;9.30;99.90;;;;;;5273520;22;20263;-92
2021/11/17 07:32:21;;;;;;;27.40;15.70;;;6.50;99.90;;;;;;5031764;28;20141;-91
2021/11/17 07:35:13;;;;;;;30.27;18.15;;;6.60;99.90;;;;;;5181171;22;20234;-94
2021/11/17 07:40:25;;;;;;;23.90;14.38;;;;;;;;;;5056041;22;20228;-86
2021/11/17 07:42:51;;;;;;;24.17;16.45;;;;;;;;;;5032411;28;20173;-87
2021/11/17 07:45:17;;;;;;;28.33;18.52;;;;;;;;;;5022922;28;20177;-84
2021/11/17 07:47:44;;;;;;;28.55;16.52;;;6.90;99.90;;;;;;5013852;28;20172;-88
2021/11/17 07:50:09;;;;;;;23.92;17.13;;;6.60;99.90;;;;;;5012598;28;20177;-87
2021/11/17 07:52:36;;;;;;;26.90;17.63;;;5.10;99.90;;;;;;5009466;28;20175;-88
2021/11/17 07:55:02;;;;;;;27.13;18.48;;;6.80;99.90;;;;;;5006814;28;20416;-87
2021/11/17 07:57:30;;;;;;;23.45;16.10;;;7.00;99.90;;;;;;5016558;28;20528;-89
2021/11/17 07:59:55;;;;;;;21.95;13.63;;;6.90;99.90;;;;;;5015033;28;20169;-88
2021/11/17 08:02:21;;;;;;;24.33;15.60;;;;;;;;;;5016619;28;20173;-87
2021/11/17 08:04:47;;;;;;;24.27;15.70;;;;;;;;;;5014756;28;20191;-87
2021/11/17 08:07:16;;;;;;;20.60;14.90;;;7.80;99.90;;;;;;5014537;28;20176;-85
2021/11/17 08:09:45;;;;;;;20.88;14.90;;;7.60;99.90;;;;;;5015085;28;20526;-89
2021/11/17 08:12:10;;;;;;;21.52;13.50;;;7.60;99.90;;;;;;5015686;28;20169;-87
2021/11/17 08:14:36;;;;;;;19.80;14.90;;;;;;;;;;5014525;28;20199;-88
2021/11/17 08:17:03;;;;;;;22.65;14.43;;;7.80;99.90;;;;;;5009978;28;20169;-87
2021/11/17 08:19:29;;;;;;;20.30;14.77;;;7.80;99.90;;;;;;5017400;28;20521;-89
2021/11/17 08:21:55;;;;;;;18.10;13.73;;;7.80;99.90;;;;;;5006819;28;20181;-88
2021/11/17 08:24:21;;;;;;;20.63;13.20;;;7.80;99.90;;;;;;5014913;28;20251;-88
2021/11/17 08:26:51;;;;;;;19.13;13.37;;;7.80;99.90;;;;;;5023299;28;20180;-87
2021/11/17 08:29:17;;;;;;;18.77;13.35;;;7.80;99.90;;;;;;5028306;28;20193;-88
2021/11/17 08:39:43;;;;;;;20.17;13.52;;;;;;;;;;5341200;22;20244;-88
2021/11/17 08:48:02;;;;;;;20.10;12.05;;;7.40;99.90;;;;;;5040643;28;20218;-83
2021/11/17 08:50:30;;;;;;;17.95;13.02;;;7.50;99.90;;;;;;5027679;28;20203;-84
2021/11/17 08:52:56;;;;;;;22.05;13.32;;;7.50;99.90;;;;;;5030854;28;20186;-87
2021/11/17 08:55:25;;;;;;;19.15;13.18;;;8.80;99.90;;;;;;5030892;28;20270;-85
2021/11/17 08:57:52;;;;;;;19.40;11.45;;;6.70;99.90;;;;;;5032829;28;20172;-84
2021/11/17 09:00:22;;;;;;;19.45;13.25;;;7.30;99.90;;;;;;4682563;28;9999909;-85
2021/11/17 09:02:50;;;;;;;23.33;12.65;;;7.30;99.90;;;;;;5029904;28;20239;-85
2021/11/17 09:05:19;;;;;;;17.63;13.70;;;10.60;99.90;;;;;;5030067;28;20187;-85
2021/11/17 09:07:46;;;;;;;19.30;14.02;;;6.70;99.90;;;;;;5030682;28;20406;-87
2021/11/17 09:10:16;;;;;;;23.83;14.43;;;7.80;99.90;;;;;;5030194;28;20215;-86
2021/11/17 09:12:42;;;;;;;21.02;12.88;;;7.70;99.90;;;;;;5029539;28;20168;-85
2021/11/17 09:15:11;;;;;;;18.67;12.87;;;7.70;99.90;;;;;;5030473;28;20193;-84
2021/11/17 09:17:38;;;;;;;21.10;13.83;;;7.70;99.90;;;;;;5029579;28;20173;-84
2021/11/17 09:20:06;;;;;;;18.45;13.25;;;7.50;99.90;;;;;;5030525;28;20501;-85
2021/11/17 09:22:32;;;;;;;21.55;14.07;;;;;;;;;;5049330;28;20205;-84
2021/11/17 09:24:59;;;;;;;18.92;11.18;;;7.70;99.90;;;;;;5049757;28;20171;-84
2021/11/17 09:27:24;;;;;;;24.77;12.82;;;6.70;99.90;;;;;;5050092;28;20171;-84
2021/11/17 09:29:50;;;;;;;19.17;13.30;;;7.60;99.90;;;;;;5049854;28;20261;-85
2021/11/17 09:32:15;;;;;;;20.57;13.30;;;7.50;99.90;;;;;;5049882;28;20174;-86
2021/11/17 09:34:42;;;;;;;13.93;9.47;;;7.50;99.90;;;;;;5049515;28;20179;-84
2021/11/17 09:37:09;;;;;;;18.70;13.38;;;7.50;99.90;;;;;;5032928;28;20164;-85
2021/11/17 09:39:36;;;;;;;19.10;12.23;;;7.80;99.90;;;;;;5046726;28;20183;-84
2021/11/17 09:42:04;;;;;;;17.85;11.70;;;7.90;99.90;;;;;;5051007;28;20548;-84
2021/11/17 09:44:36;;;;;;;18.91;12.84;;;7.80;99.90;;;;;;4702246;28;10001071;-84
2021/11/17 09:47:06;;;;;;;16.92;11.90;;;7.90;99.90;;;;;;5030099;28;20184;-85
2021/11/17 09:49:38;;;;;;;11.27;9.30;;;7.90;99.90;;;;;;5025773;28;20632;-85
2021/11/17 09:52:09;;;;;;;20.27;15.40;;;7.80;99.90;;;;;;5029831;28;20446;-85
2021/11/17 09:54:48;;;;;;;22.27;14.25;;;7.70;99.90;;;;;;5026132;28;20322;-83
2021/11/17 09:57:14;;;;;;;24.17;13.30;;;;;;;;;;5022948;28;20175;-84
2021/11/17 09:59:45;;;;;;;16.57;12.10;;;7.70;99.90;;;;;;5029384;28;20214;-85
2021/11/17 10:02:25;;;;;;;23.88;13.63;;;7.60;99.90;;;;;;5031670;28;20553;-85
2021/11/17 10:04:50;;;;;;;16.95;13.63;;;7.70;99.90;;;;;;5033690;28;20513;-83
2021/11/17 10:07:47;;;;;;;26.53;13.90;;;7.70;99.90;;;;;;5033120;28;20290;-84
2021/11/17 10:11:06;;;;;;;24.65;15.05;;;7.50;99.90;;;;;;5032395;28;20272;-85
2021/11/17 10:13:34;;;;;;;19.25;13.90;;;8.80;99.90;;;;;;5039303;28;20238;-84
2021/11/17 10:16:00;;;;;;;20.73;13.65;;;7.80;99.90;;;;;;5032837;28;20172;-83
2021/11/17 10:18:39;;;;;;;18.90;13.00;;;8.10;99.90;;;;;;5032781;28;20194;-86
2021/11/17 10:21:30;;;;;;;16.42;12.88;;;7.80;99.90;;;;;;5025089;28;20172;-84
2021/11/17 10:24:07;;;;;;;17.30;13.02;;;8.10;99.90;;;;;;5024459;28;20265;-84
2021/11/17 10:26:59;;;;;;;16.33;11.85;;;8.00;99.90;;;;;;5035638;28;20258;-86
2021/11/17 10:29:36;;;;;;;22.13;12.75;;;8.20;99.90;;;;;;5035001;28;20208;-85
2021/11/17 10:32:04;;;;;;;17.63;12.30;;;7.90;99.90;;;;;;5033072;28;20199;-83
2021/11/17 10:34:39;;;;;;;18.85;12.93;;;8.10;99.90;;;;;;5032812;28;20168;-83
2021/11/17 10:37:23;;;;;;;21.08;13.52;;;8.20;99.90;;;;;;5032858;28;20179;-85
2021/11/17 10:39:50;;;;;;;19.90;12.98;;;8.10;99.90;;;;;;5032612;28;20183;-84
2021/11/17 10:42:19;;;;;;;19.77;13.95;;;8.00;99.90;;;;;;5026009;28;20194;-84
2021/11/17 10:45:19;;;;;;;19.20;11.98;;;9.80;99.90;;;;;;5034038;28;20219;-84
2021/11/17 10:47:46;;;;;;;24.95;13.93;;;8.00;99.90;;;;;;5051829;28;20183;-86
2021/11/17 10:50:27;;;;;;;17.00;12.15;;;8.00;99.90;;;;;;5052283;28;20183;-84
2021/11/17 10:53:02;;;;;;;22.23;13.23;;;8.20;99.90;;;;;;5051748;28;20164;-85
2021/11/17 10:55:45;;;;;;;18.33;12.02;;;8.30;99.90;;;;;;5040053;28;20175;-84
2021/11/17 10:58:32;;;;;;;20.42;11.23;;;8.30;99.90;;;;;;5032253;28;20176;-85
2021/11/17 11:01:04;;;;;;;24.65;13.68;;;8.20;99.90;;;;;;5031967;28;20210;-86
2021/11/17 11:03:37;;;;;;;25.58;15.27;;;7.70;99.90;;;;;;5032562;28;20513;-85
2021/11/17 11:06:14;;;;;;;29.25;16.23;;;8.30;99.90;;;;;;5032068;28;20168;-85
2021/11/17 11:08:46;;;;;;;20.50;13.45;;;8.10;99.90;;;;;;5031627;28;20273;-84
2021/11/17 11:11:12;;;;;;;23.33;13.43;;;8.30;99.90;;;;;;5031503;28;20171;-84
2021/11/17 11:13:52;;;;;;;19.77;13.05;;;9.00;99.90;;;;;;5031952;28;20168;-84
2021/11/17 11:16:40;;;;;;;24.15;15.25;;;8.50;99.90;;;;;;5031873;28;20175;-86
2021/11/17 11:19:09;;;;;;;27.13;15.40;;;8.40;99.90;;;;;;5032656;28;20208;-85
2021/11/17 11:21:57;;;;;;;23.10;15.05;;;8.40;99.90;;;;;;5032920;28;20226;-86
2021/11/17 11:24:37;;;;;;;23.30;13.70;;;8.00;99.90;;;;;;5028859;28;20176;-83
2021/11/17 11:27:02;;;;;;;24.23;15.02;;;8.50;99.90;;;;;;5034608;28;20168;-86
2021/11/17 11:29:34;;;;;;;20.27;12.57;;;8.60;99.90;;;;;;5034372;28;20249;-85
2021/11/17 11:32:25;;;;;;;30.60;16.90;;;8.50;99.90;;;;;;5033593;28;20157;-85
2021/11/17 11:35:00;;;;;;;35.65;18.25;;;8.60;99.90;;;;;;5024128;28;20675;-85
2021/11/17 11:37:25;;;;;;;33.65;17.65;;;8.30;99.90;;;;;;5034254;28;20622;-85
2021/11/17 11:39:58;;;;;;;27.30;16.80;;;8.40;99.90;;;;;;5034264;28;20210;-85
2021/11/17 11:42:53;;;;;;;32.45;16.58;;;8.60;99.90;;;;;;5028440;28;20172;-85
2021/11/17 11:45:28;;;;;;;27.05;15.88;;;8.00;99.90;;;;;;5027688;28;20220;-86
2021/11/17 11:48:01;;;;;;;32.15;16.58;;;8.50;99.90;;;;;;5013394;28;20183;-86
2021/11/17 11:50:38;;;;;;;26.40;15.77;;;8.70;99.90;;;;;;5034599;28;20510;-85
2021/11/17 11:53:08;;;;;;;25.80;16.13;;;8.80;99.90;;;;;;5034898;28;20164;-85
2021/11/17 11:55:49;;;;;;;30.95;17.25;;;8.70;99.90;;;;;;5034390;28;20259;-84
2021/11/17 11:58:21;;;;;;;32.90;17.60;;;8.60;99.90;;;;;;5033637;28;20171;-83
2021/11/17 12:01:09;;;;;;;23.33;15.82;;;8.40;99.90;;;;;;5034161;28;20495;-85
2021/11/17 12:03:43;;;;;;;28.90;17.00;;;8.10;99.90;;;;;;5033371;28;20254;-86
2021/11/17 12:06:58;;;;;;;29.85;16.40;;;8.10;99.90;;;;;;5033286;28;20191;-85
2021/11/17 12:09:33;;;;;;;29.35;16.95;;;8.40;99.90;;;;;;5018606;28;20215;-85
2021/11/17 12:12:04;;;;;;;26.70;16.00;;;7.60;99.90;;;;;;5027983;28;20167;-84
2021/11/17 12:14:51;;;;;;;31.13;17.30;;;8.40;99.90;;;;;;5033363;28;20635;-86
2021/11/17 12:17:26;;;;;;;31.30;17.35;;;7.80;99.90;;;;;;5033526;28;20608;-84
2021/11/17 12:20:00;;;;;;;26.75;16.65;;;8.10;99.90;;;;;;5032852;28;20253;-84
2021/11/17 12:22:46;;;;;;;25.85;15.60;;;8.30;99.90;;;;;;5031870;28;20182;-86
2021/11/17 12:25:22;;;;;;;30.63;17.25;;;8.30;99.90;;;;;;5033482;28;20168;-84
2021/11/17 12:31:54;;;;;;;;;;;;;;;;;;;;;
2021/11/17 12:40:15;;;;;;;34.83;18.70;;;8.40;99.90;;;;;;2808431;22;21196;-88
2021/11/17 12:48:18;;;;;;;47.00;21.13;;;8.00;99.90;;;;;;4152129;22;20313;-90
2021/11/17 12:50:55;;;;;;;43.67;21.92;;;8.30;99.90;;;;;;5039752;28;20569;-89
2021/11/17 12:54:08;;;;;;;41.37;23.47;;;8.30;99.90;;;;;;5042028;28;20171;-91
2021/11/17 13:03:18;;;;;;;36.53;19.87;;;8.40;99.90;;;;;;3314532;22;20462;-89
2021/11/17 13:05:44;;;;;;;33.17;17.80;;;;;;;;;;5178060;22;21889;-89
2021/11/17 13:08:17;;;;;;;38.97;18.80;;;8.40;99.90;;;;;;5042205;28;20228;-90
2021/11/17 13:11:30;;;;;;;40.67;18.92;;;8.40;99.90;;;;;;5094547;22;20482;-90
2021/11/17 13:14:00;;;;;;;45.25;22.40;;;7.80;99.90;;;;;;5035215;28;20203;-89
2021/11/17 13:17:15;;;;;;;42.70;20.83;;;8.40;99.90;;;;;;5045661;28;20172;-90
2021/11/17 13:19:52;;;;;;;38.30;20.17;;;8.40;99.90;;;;;;4997583;28;20183;-91
2021/11/17 13:23:13;;;;;;;41.20;21.60;;;8.50;99.90;;;;;;5043948;28;20168;-91
2021/11/17 13:25:53;;;;;;;38.97;20.05;;;8.50;99.90;;;;;;4992901;28;20431;-87
2021/11/17 13:28:54;;;;;;;44.08;22.60;;;11.20;99.90;;;;;;5019614;28;20226;-89
2021/11/17 13:31:50;;;;;;;38.83;18.77;;;8.60;99.90;;;;;;4923488;29;20186;-91
2021/11/17 13:34:38;;;;;;;31.52;17.55;;;8.60;99.90;;;;;;5038453;28;20171;-90
2021/11/17 13:37:36;;;;;;;31.07;16.90;;;8.80;99.90;;;;;;5018441;28;20172;-90
2021/11/17 13:40:18;;;;;;;32.07;18.00;;;8.80;99.90;;;;;;5018053;28;20414;-89
2021/11/17 13:42:48;;;;;;;31.75;17.30;;;8.70;99.90;;;;;;5019825;28;20537;-92
2021/11/17 13:45:18;;;;;;;30.47;18.77;;;8.70;99.90;;;;;;5017129;28;20233;-90
2021/11/17 13:47:45;;;;;;;30.50;17.60;;;8.70;99.90;;;;;;5005346;28;20423;-89
2021/11/17 13:50:13;;;;;;;33.95;17.48;;;8.00;99.90;;;;;;5034979;28;20465;-88
2021/11/17 13:52:45;;;;;;;31.45;17.38;;;8.80;99.90;;;;;;5019208;28;20168;-90
2021/11/17 13:55:15;;;;;;;36.60;18.80;;;8.70;99.90;;;;;;5037112;28;20164;-86
2021/11/17 13:57:44;;;;;;;33.27;17.90;;;8.70;99.90;;;;;;5018514;28;20267;-89
2021/11/17 14:00:12;;;;;;;38.63;20.02;;;8.70;99.90;;;;;;5036840;28;20414;-89
2021/11/17 14:02:38;;;;;;;33.88;19.83;;;9.10;99.90;;;;;;5018240;28;20176;-87
2021/11/17 14:05:05;;;;;;;40.00;21.00;;;8.80;99.90;;;;;;5012992;28;20565;-90
2021/11/17 14:07:32;;;;;;;37.67;19.07;;;8.70;99.90;;;;;;5017057;28;20173;-90
2021/11/17 14:09:58;;;;;;;40.13;20.30;;;;;;;;;;5016972;28;20713;-89
2021/11/17 14:12:30;;;;;;;40.58;21.32;;;;;;;;;;4829503;28;10000764;-89
2021/11/17 14:15:06;;;;;;;;;;;;;;;;;;;;;
2021/11/17 14:17:35;;;;;;;42.77;20.33;;;;;;;;;;5051309;28;20204;-89
2021/11/17 14:20:10;;;;;;;47.05;23.88;;;8.80;99.90;;;;;;5036801;28;20420;-91
2021/11/17 14:22:39;;;;;;;47.40;24.05;;;10.10;99.90;;;;;;4996206;28;20203;-90
2021/11/17 14:25:25;;;;;;;57.43;26.37;;;8.80;99.90;;;;;;5009221;28;20173;-90
2021/11/17 14:27:57;;;;;;;69.30;26.67;;;8.80;99.90;;;;;;5007652;28;20420;-86
2021/11/17 14:30:41;;;;;;;61.88;27.15;;;9.50;99.90;;;;;;5015259;28;20204;-87
2021/11/17 14:33:08;;;;;;;68.53;28.87;;;8.80;99.90;;;;;;5013067;28;20200;-87
2021/11/17 14:35:34;;;;;;;62.78;26.00;;;;;;;;;;5015011;28;20772;-88
2021/11/17 14:38:01;;;;;;;64.60;29.30;;;9.00;99.90;;;;;;4997412;28;20180;-91
2021/11/17 14:40:28;;;;;;;65.60;26.73;;;8.90;99.90;;;;;;5001462;28;20778;-89
2021/11/17 14:42:54;;;;;;;66.88;27.67;;;8.90;99.90;;;;;;5017225;28;20479;-85
2021/11/17 14:45:23;;;;;;;76.23;28.23;;;9.00;99.90;;;;;;5015984;28;20261;-90
2021/11/17 14:47:49;;;;;;;65.75;25.40;;;;;;;;;;4997796;28;20443;-91
2021/11/17 14:50:16;;;;;;;57.43;24.97;;;9.00;99.90;;;;;;4998412;28;20216;-90
2021/11/17 14:53:02;;;;;;;68.60;27.80;;;9.10;99.90;;;;;;5019688;28;20817;-90
2021/11/17 14:55:34;;;;;;;70.57;27.60;;;9.60;99.90;;;;;;5007824;28;20640;-93
2021/11/17 14:58:03;;;;;;;83.22;30.13;;;;;;;;;;5027734;28;20426;-91
2021/11/17 15:00:34;;;;;;;74.32;28.48;;;9.20;99.90;;;;;;4993942;28;20261;-87
2021/11/17 15:03:00;;;;;;;73.97;28.43;;;;;;;;;;4984171;28;20180;-90
2021/11/17 15:05:47;;;;;;;75.87;30.60;;;9.20;99.90;;;;;;4983471;28;20782;-87
2021/11/17 15:08:13;;;;;;;78.53;30.67;;;9.20;99.90;;;;;;5000110;28;20537;-85
2021/11/17 15:10:44;;;;;;;68.90;31.30;;;;;;;;;;5001465;28;21013;-89
2021/11/17 15:13:11;;;;;;;87.53;33.10;;;;;;;;;;5043443;28;20184;-89
2021/11/17 15:15:43;;;;;;;85.37;31.57;;;9.20;99.90;;;;;;5041391;28;20417;-87
2021/11/17 15:18:09;;;;;;;91.13;32.92;;;;;;;;;;5058404;28;20428;-89
2021/11/17 15:20:35;;;;;;;87.63;33.43;;;;;;;;;;5042429;28;20194;-89
2021/11/17 15:23:07;;;;;;;101.70;34.83;;;;;;;;;;5055645;28;20406;-87
2021/11/17 15:25:36;;;;;;;73.80;30.07;;;9.30;99.90;;;;;;5036611;28;20414;-88
2021/11/17 15:28:09;;;;;;;85.23;33.23;;;11.30;99.90;;;;;;5054443;28;20510;-87
2021/11/17 15:30:47;;;;;;;71.90;32.33;;;9.30;99.90;;;;;;5053078;28;20909;-88
2021/11/17 15:33:13;;;;;;;85.50;31.00;;;;;;;;;;5036142;28;20261;-90
2021/11/17 15:35:39;;;;;;;85.17;31.37;;;;;;;;;;5054373;28;20175;-90
2021/11/17 15:38:12;;;;;;;87.95;33.65;;;9.40;99.90;;;;;;5054109;28;20421;-87
2021/11/17 15:40:42;;;;;;;67.23;30.20;;;9.50;99.90;;;;;;5037911;28;20266;-88
2021/11/17 15:43:08;;;;;;;82.38;32.75;;;;;;;;;;5054205;28;20430;-90
2021/11/17 15:45:37;;;;;;;81.20;31.00;;;9.40;99.90;;;;;;5035499;28;20221;-90
2021/11/17 15:48:03;;;;;;;87.88;33.30;;;12.00;99.90;;;;;;5052827;28;20406;-89
2021/11/17 15:50:37;;;;;;;83.82;33.10;;;9.50;99.90;;;;;;5054473;28;20171;-89
2021/11/17 15:53:03;;;;;;;79.10;28.57;;;;;;;;;;5034890;28;20199;-88
2021/11/17 15:55:30;;;;;;;86.65;33.88;;;9.50;99.90;;;;;;5053712;28;20410;-87
2021/11/17 15:57:56;;;;;;;78.50;32.97;;;;;;;;;;5035782;28;20209;-89
2021/11/17 16:00:30;;;;;;;78.57;33.30;;;10.20;99.90;;;;;;5052122;28;20182;-89
2021/11/17 16:02:56;;;;;;;90.43;31.20;;;;;;;;;;5037964;28;20487;-89
2021/11/17 16:05:25;;;;;;;80.30;31.67;;;9.40;99.90;;;;;;5054389;28;20428;-89
2021/11/17 16:07:51;;;;;;;67.75;30.45;;;;;;;;;;5054153;28;20418;-88
2021/11/17 16:10:20;;;;;;;71.33;32.43;;;9.40;99.90;;;;;;5037640;28;20218;-89
2021/11/17 16:12:49;;;;;;;66.47;28.17;;;9.50;99.90;;;;;;5030996;28;20492;-88
2021/11/17 16:15:15;;;;;;;69.78;27.02;;;;;;;;;;5017849;28;20498;-90
2021/11/17 16:17:43;;;;;;;77.67;29.67;;;9.60;99.90;;;;;;5018700;28;20253;-92
2021/11/17 16:20:13;;;;;;;76.80;29.90;;;11.80;99.90;;;;;;5016282;28;20425;-88
2021/11/17 16:22:49;;;;;;;70.75;27.35;;;9.50;99.90;;;;;;5015194;28;20438;-89
2021/11/17 16:25:47;;;;;;;;;;;;;;;;;;;;;
2021/11/17 16:28:23;;;;;;;66.27;26.77;;;9.70;99.90;;;;;;5032822;28;20552;-89
2021/11/17 16:30:51;;;;;;;62.57;27.33;;;8.90;99.90;;;;;;5027254;28;20954;-90
2021/11/17 16:33:18;;;;;;;61.67;28.05;;;;;;;;;;5013812;28;20407;-89
2021/11/17 16:35:51;;;;;;;74.35;29.98;;;9.30;99.90;;;;;;5008255;28;20298;-90
2021/11/17 16:38:21;;;;;;;59.63;28.67;;;9.40;99.90;;;;;;5031791;28;20180;-87
2021/11/17 16:40:58;;;;;;;61.17;27.77;;;9.40;99.90;;;;;;5015011;28;20210;-89
2021/11/17 16:43:24;;;;;;;62.63;27.70;;;;;;;;;;5015068;28;20418;-89
2021/11/17 16:45:52;;;;;;;69.53;29.75;;;;;;;;;;5033198;28;20964;-88
2021/11/17 16:48:21;;;;;;;60.22;27.67;;;9.30;99.90;;;;;;5034174;28;20196;-90
2021/11/17 16:50:59;;;;;;;;;;;;;;;;;;;;;
2021/11/17 16:53:26;;;;;;;67.00;28.73;;;9.40;99.90;;;;;;5035135;28;20166;-90
2021/11/17 16:55:58;;;;;;;73.13;29.98;;;;;;;;;;5017452;28;20448;-91